Time;durP1;ratioP1;P1;durP2;ratioP2;P2;SDS_P1;SDS_P2;PMS_P1;PMS_P2;Temp;Humidity;BMP_temperature;BMP_pressure;BME280_temperature;BME280_humidity;BME280_pressure;Samples;Min_cycle;Max_cycle;Signal;HPM_P1;HPM_P2
2021/04/17 00:02:04;;;;;;;5.68;4.68;;;;;;;7.73;54.54;100681.44;5010959;28;20116;-68
2021/04/17 00:04:33;;;;;;;4.95;4.25;;;;;;;7.61;55.47;100685.22;5012398;28;20088;-67
2021/04/17 00:07:00;;;;;;;6.10;4.05;;;;;;;7.80;54.96;100678.56;5012183;28;20489;-68
2021/04/17 00:09:29;;;;;;;4.65;4.03;;;;;;;7.73;54.97;100676.25;5012003;28;20042;-67
2021/04/17 00:11:59;;;;;;;8.15;4.53;;;;;;;7.61;55.23;100672.25;5026018;28;20092;-67
2021/04/17 00:14:46;;;;;;;5.15;3.72;;;;;;;7.54;54.19;100675.94;5012182;28;20526;-67
2021/04/17 00:17:18;;;;;;;4.35;4.00;;;;;;;7.60;53.28;100670.56;5010712;28;20062;-67
2021/04/17 00:19:52;;;;;;;9.52;4.18;;;;;;;7.59;53.95;100674.91;4995066;28;20042;-67
2021/04/17 00:22:19;;;;;;;4.97;4.07;;;;;;;7.69;54.22;100677.22;5010867;28;20364;-68
2021/04/17 00:24:46;;;;;;;6.15;3.90;;;;;;;7.74;52.24;100673.59;5011839;28;20046;-67
2021/04/17 00:27:14;;;;;;;6.07;4.07;;;;;;;7.78;52.79;100675.19;5011020;28;20048;-67
2021/04/17 00:29:41;;;;;;;8.02;3.88;;;;;;;7.59;54.43;100663.69;5010783;28;20038;-66
2021/04/17 00:32:08;;;;;;;6.43;4.15;;;;;;;7.50;55.12;100667.41;5011264;28;20046;-67
2021/04/17 00:34:37;;;;;;;6.03;4.20;;;;;;;7.60;53.77;100665.38;5011265;28;20049;-67
2021/04/17 00:37:08;;;;;;;9.35;4.85;;;;;;;7.44;55.08;100658.97;5011613;28;20062;-67
2021/04/17 00:39:36;;;;;;;7.95;4.72;;;;;;;7.39;53.84;100663.44;5012205;28;20057;-66
2021/04/17 00:42:05;;;;;;;6.30;4.93;;;;;;;7.51;54.67;100655.28;5011779;28;20137;-66
2021/04/17 00:44:33;;;;;;;8.05;4.65;;;;;;;7.47;55.41;100659.72;5018247;28;20053;-67
2021/04/17 00:47:01;;;;;;;5.05;4.55;;;;;;;7.43;56.16;100652.94;5010589;28;20065;-66
2021/04/17 00:49:27;;;;;;;7.20;4.55;;;;;;;7.42;56.09;100647.78;5010924;28;20492;-67
2021/04/17 00:51:54;;;;;;;5.45;4.40;;;;;;;7.47;55.95;100648.50;5010367;28;20050;-66
2021/04/17 00:54:21;;;;;;;7.90;4.63;;;;;;;7.37;56.46;100652.28;5009443;28;20057;-66
2021/04/17 00:56:47;;;;;;;7.25;5.70;;;;;;;7.33;56.37;100646.31;5012188;28;20068;-66
2021/04/17 00:59:14;;;;;;;4.97;4.57;;;;;;;7.26;56.41;100650.84;5015681;28;20639;-66
2021/04/17 01:01:41;;;;;;;6.72;4.88;;;;;;;7.03;56.46;100648.94;5012384;28;20145;-66
2021/04/17 01:04:31;;;;;;;6.00;5.07;;;;;;;7.18;56.58;100650.22;5014729;28;20042;-66
2021/04/17 01:07:39;;;;;;;5.68;4.90;;;;;;;7.22;55.96;100644.03;5014539;28;20065;-67
2021/04/17 01:10:20;;;;;;;4.82;4.32;;;;;;;7.34;55.45;100643.66;4992882;28;20895;-67
2021/04/17 01:12:51;;;;;;;5.82;4.75;;;;;;;7.25;55.45;100649.16;5033155;28;20111;-67
2021/04/17 01:15:20;;;;;;;6.15;4.50;;;;;;;7.30;55.02;100642.09;5035539;28;20503;-66
2021/04/17 01:17:49;;;;;;;5.78;5.07;;;;;;;7.27;55.22;100647.34;5014734;28;20577;-66
2021/04/17 01:20:19;;;;;;;7.28;4.68;;;;;;;7.24;55.75;100642.25;5014829;28;20497;-66
2021/04/17 01:23:26;;;;;;;8.90;4.97;;;;;;;7.13;56.25;100636.53;5014818;28;20068;-67
2021/04/17 01:26:00;;;;;;;6.60;5.47;;;;;;;7.26;56.01;100640.47;5007277;28;20042;-67
2021/04/17 01:28:30;;;;;;;6.03;4.80;;;;;;;7.18;55.92;100634.66;5014743;28;20134;-67
2021/04/17 01:30:59;;;;;;;5.93;4.72;;;;;;;7.12;55.97;100636.59;5013977;28;20066;-66
2021/04/17 01:33:30;;;;;;;4.65;4.10;;;;;;;7.09;56.40;100642.72;5015932;28;20046;-67
2021/04/17 01:36:00;;;;;;;9.90;5.53;;;;;;;6.96;56.33;100637.03;5015201;28;20528;-67
2021/04/17 01:38:30;;;;;;;4.82;4.32;;;;;;;6.88;56.33;100636.41;5014688;28;20045;-66
2021/04/17 01:41:03;;;;;;;5.32;4.53;;;;;;;6.89;57.25;100632.06;5012836;28;20088;-66
2021/04/17 01:43:31;;;;;;;7.30;4.10;;;;;;;6.93;56.17;100625.91;5014682;28;20038;-67
2021/04/17 01:46:11;;;;;;;7.05;4.38;;;;;;;7.04;56.29;100623.88;5015500;28;20126;-67
2021/04/17 01:48:38;;;;;;;7.45;5.03;;;;;;;6.90;55.87;100620.81;5034266;28;20076;-67
2021/04/17 01:51:06;;;;;;;5.43;4.32;;;;;;;6.89;56.11;100616.53;5025274;28;20061;-66
2021/04/17 01:53:37;;;;;;;9.63;4.97;;;;;;;6.80;56.62;100625.41;5013220;28;20033;-66
2021/04/17 01:56:06;;;;;;;8.02;4.45;;;;;;;6.97;56.27;100628.34;5013772;28;20133;-66
2021/04/17 01:58:37;;;;;;;11.43;5.10;;;;;;;7.03;56.46;100620.44;5013955;28;20080;-66
2021/04/17 02:01:04;;;;;;;6.65;4.00;;;;;;;6.99;55.71;100621.41;5014735;28;20092;-66
2021/04/17 02:03:31;;;;;;;5.95;4.78;;;;;;;6.98;55.90;100616.28;5012930;28;20129;-66
2021/04/17 02:05:58;;;;;;;6.35;4.10;;;;;;;7.10;55.04;100613.31;5015194;28;20038;-66
2021/04/17 02:08:25;;;;;;;4.70;4.05;;;;;;;7.03;55.35;100614.38;5013335;28;20095;-66
2021/04/17 02:10:56;;;;;;;6.43;5.10;;;;;;;6.73;57.01;100616.13;5014527;28;20081;-66
2021/04/17 02:13:22;;;;;;;5.53;4.07;;;;;;;6.86;56.58;100606.25;5013139;28;20070;-67
2021/04/17 02:15:49;;;;;;;5.07;4.63;;;;;;;6.69;56.92;100611.91;5014998;28;20057;-67
2021/04/17 02:18:27;;;;;;;6.35;4.30;;;;;;;6.89;55.91;100603.56;5014954;28;20133;-66
2021/04/17 02:21:06;;;;;;;5.25;4.57;;;;;;;6.85;56.45;100607.13;5013679;28;20045;-66
2021/04/17 02:23:35;;;;;;;5.85;4.88;;;;;;;6.88;56.75;100599.28;5012953;28;20451;-66
2021/04/17 02:26:03;;;;;;;4.82;4.15;;;;;;;6.81;56.45;100602.03;5012700;28;20613;-66
2021/04/17 02:28:31;;;;;;;4.80;4.40;;;;;;;6.73;56.62;100592.78;5014168;28;20042;-66
2021/04/17 02:31:02;;;;;;;6.07;5.25;;;;;;;6.74;56.88;100591.91;5012695;28;20040;-66
2021/04/17 02:33:32;;;;;;;5.22;4.72;;;;;;;6.81;56.46;100599.44;5014215;28;20042;-67
2021/04/17 02:36:03;;;;;;;7.13;4.45;;;;;;;6.90;56.42;100593.16;5012250;28;20042;-66
2021/04/17 02:38:36;;;;;;;5.35;4.40;;;;;;;6.80;56.96;100594.31;5013189;28;20066;-66
2021/04/17 02:41:07;;;;;;;6.85;4.65;;;;;;;7.03;55.67;100602.28;5012824;28;20058;-66
2021/04/17 02:43:34;;;;;;;6.90;4.60;;;;;;;6.93;57.03;100600.00;5012949;28;20050;-67
2021/04/17 02:46:01;;;;;;;5.53;4.63;;;;;;;6.92;56.54;100593.09;5013651;28;20121;-66
2021/04/17 02:48:29;;;;;;;8.18;4.47;;;;;;;6.88;57.29;100599.28;5013075;28;20042;-67
2021/04/17 02:50:59;;;;;;;7.47;6.53;;;;;;;6.75;57.68;100599.63;5013256;28;20568;-66
2021/04/17 02:53:33;;;;;;;7.85;5.13;;;;;;;6.74;57.85;100597.09;5012430;28;20129;-66
2021/04/17 02:56:03;;;;;;;5.07;4.43;;;;;;;6.69;57.68;100596.38;5013642;28;20116;-66
2021/04/17 02:58:31;;;;;;;12.70;5.05;;;;;;;6.69;58.11;100596.38;5013159;28;20050;-67
2021/04/17 03:00:58;;;;;;;6.75;4.55;;;;;;;6.69;58.18;100584.25;5013630;28;20053;-67
2021/04/17 03:03:24;;;;;;;7.03;5.40;;;;;;;6.54;59.04;100582.94;5011707;28;20046;-67
2021/04/17 03:05:51;;;;;;;7.15;4.97;;;;;;;6.68;57.75;100587.75;5012397;28;20445;-67
2021/04/17 03:08:17;;;;;;;7.82;4.10;;;;;;;6.61;57.49;100581.06;5011723;28;20045;-67
2021/04/17 03:10:44;;;;;;;5.30;4.80;;;;;;;6.68;57.92;100585.16;5012156;28;20570;-66
2021/04/17 03:13:11;;;;;;;12.63;5.25;;;;;;;6.63;58.06;100581.84;5012727;28;20092;-67
2021/04/17 03:15:39;;;;;;;10.63;5.10;;;;;;;6.74;57.52;100573.75;5011670;28;20046;-67
2021/04/17 03:18:06;;;;;;;6.38;5.07;;;;;;;6.61;57.28;100580.19;5012773;28;20042;-68
2021/04/17 03:20:33;;;;;;;5.70;5.10;;;;;;;6.74;57.69;100579.78;5011095;28;20038;-68
2021/04/17 03:22:59;;;;;;;7.70;5.38;;;;;;;6.58;58.98;100578.53;5011723;28;20096;-68
2021/04/17 03:25:26;;;;;;;8.68;6.00;;;;;;;6.55;58.02;100569.13;5011448;28;20092;-68
2021/04/17 03:27:52;;;;;;;9.27;5.82;;;;;;;6.39;58.51;100579.94;5011868;28;20490;-68
2021/04/17 03:30:20;;;;;;;6.68;6.07;;;;;;;6.50;58.79;100575.31;5013059;28;20397;-68
2021/04/17 03:32:47;;;;;;;9.75;6.13;;;;;;;6.40;58.75;100571.28;5025624;28;20080;-68
2021/04/17 03:35:14;;;;;;;7.40;5.35;;;;;;;6.37;59.29;100572.22;5032917;28;20555;-68
2021/04/17 03:37:44;;;;;;;7.35;5.47;;;;;;;6.49;58.78;100573.59;5016938;28;20471;-68
2021/04/17 03:40:14;;;;;;;7.43;5.30;;;;;;;6.54;58.11;100567.41;5013418;28;20121;-68
2021/04/17 03:42:40;;;;;;;8.75;5.88;;;;;;;6.34;57.71;100571.44;5011038;28;20133;-68
2021/04/17 03:45:09;;;;;;;6.85;5.95;;;;;;;6.29;57.76;100574.16;5011117;28;20500;-68
2021/04/17 03:47:36;;;;;;;6.43;5.82;;;;;;;6.47;58.05;100576.25;5011625;28;20066;-68
2021/04/17 03:50:07;;;;;;;7.07;4.95;;;;;;;6.62;56.36;100574.97;5011812;28;20048;-68
2021/04/17 03:52:35;;;;;;;6.90;5.68;;;;;;;6.33;56.62;100580.09;5011617;28;20048;-68
2021/04/17 03:55:05;;;;;;;14.57;5.15;;;;;;;6.41;57.38;100573.81;5013211;28;20053;-68
2021/04/17 03:57:32;;;;;;;8.15;6.25;;;;;;;6.38;57.50;100580.81;5010958;28;20119;-68
2021/04/17 03:59:59;;;;;;;10.43;6.20;;;;;;;6.39;57.73;100585.09;5008729;28;20038;-68
2021/04/17 04:02:29;;;;;;;7.22;6.20;;;;;;;6.32;57.62;100576.66;5010093;28;20046;-68
2021/04/17 04:04:57;;;;;;;5.88;5.03;;;;;;;6.42;57.28;100579.84;5010417;28;20038;-68
2021/04/17 04:07:23;;;;;;;8.90;5.55;;;;;;;6.21;58.08;100579.53;5010812;28;20482;-68
2021/04/17 04:09:50;;;;;;;6.90;5.93;;;;;;;6.29;58.26;100572.44;5011494;28;20070;-68
2021/04/17 04:12:16;;;;;;;8.27;7.22;;;;;;;6.38;57.46;100578.22;5011303;28;20096;-67
2021/04/17 04:14:43;;;;;;;6.47;5.70;;;;;;;6.32;57.52;100576.66;5011300;28;20056;-67
2021/04/17 04:17:09;;;;;;;10.13;6.05;;;;;;;6.39;57.70;100574.75;5011613;28;20073;-67
2021/04/17 04:19:36;;;;;;;5.65;4.70;;;;;;;6.28;57.47;100575.91;5010774;28;20073;-67
2021/04/17 04:22:02;;;;;;;4.57;4.15;;;;;;;6.42;56.91;100583.28;5012023;28;20061;-67
2021/04/17 04:24:28;;;;;;;6.82;5.30;;;;;;;6.19;58.37;100580.47;5011222;28;20029;-67
2021/04/17 04:26:55;;;;;;;6.28;4.72;;;;;;;6.18;57.39;100579.63;5011123;28;20497;-67
2021/04/17 04:29:22;;;;;;;5.22;4.72;;;;;;;6.14;57.73;100577.16;5014176;28;20091;-67
2021/04/17 04:31:54;;;;;;;6.00;5.03;;;;;;;6.14;58.15;100583.19;5034610;28;20417;-65
2021/04/17 04:34:24;;;;;;;10.93;5.35;;;;;;;6.17;57.68;100590.84;5010925;28;20046;-66
2021/04/17 04:36:57;;;;;;;10.82;5.45;;;;;;;6.29;57.59;100590.56;5010041;28;20413;-66
2021/04/17 04:39:31;;;;;;;7.88;4.40;;;;;;;6.31;58.00;100585.31;5012194;28;20473;-66
2021/04/17 04:41:59;;;;;;;8.07;5.47;;;;;;;6.18;58.19;100590.00;5010788;28;20058;-66
2021/04/17 04:44:32;;;;;;;7.28;5.68;;;;;;;6.30;58.26;100588.81;5010960;28;20038;-66
2021/04/17 04:47:00;;;;;;;6.85;4.40;;;;;;;6.24;58.22;100589.81;5036727;28;20049;-66
2021/04/17 04:49:34;;;;;;;5.75;4.70;;;;;;;6.23;58.51;100598.50;5030000;28;20542;-66
2021/04/17 04:52:02;;;;;;;8.50;4.90;;;;;;;6.18;57.10;100595.16;5019411;28;20172;-66
2021/04/17 04:54:40;;;;;;;6.50;4.80;;;;;;;6.31;57.64;100595.69;5010317;28;20125;-65
2021/04/17 04:57:10;;;;;;;6.05;4.78;;;;;;;6.41;57.52;100597.13;5010521;28;20308;-65
2021/04/17 04:59:44;;;;;;;4.43;3.80;;;;;;;6.44;57.05;100596.19;5011896;28;20623;-66
2021/04/17 05:02:13;;;;;;;7.40;4.13;;;;;;;6.38;57.84;100602.38;5029893;28;20056;-67
2021/04/17 05:04:40;;;;;;;5.38;4.10;;;;;;;6.46;57.73;100608.22;5024139;28;20038;-67
2021/04/17 05:07:06;;;;;;;4.78;4.20;;;;;;;6.45;57.68;100606.53;5011711;28;20077;-68
2021/04/17 05:09:33;;;;;;;7.88;5.10;;;;;;;6.51;57.76;100608.94;5030670;28;20045;-67
2021/04/17 05:11:59;;;;;;;7.13;4.95;;;;;;;6.60;57.18;100605.22;5030717;28;20048;-67
2021/04/17 05:14:26;;;;;;;6.80;5.05;;;;;;;6.72;57.13;100607.50;5026900;28;20397;-68
2021/04/17 05:16:52;;;;;;;9.73;4.57;;;;;;;6.80;57.51;100607.25;5027098;28;20132;-66
2021/04/17 05:19:19;;;;;;;6.80;4.70;;;;;;;7.00;56.90;100609.28;5025495;28;20053;-68
2021/04/17 05:21:45;;;;;;;8.45;5.00;;;;;;;6.73;56.14;100606.59;5025292;28;20125;-67
2021/04/17 05:24:12;;;;;;;7.05;5.03;;;;;;;6.72;56.47;100607.50;5025063;28;20037;-67
2021/04/17 05:26:39;;;;;;;7.07;4.43;;;;;;;6.81;55.73;100612.41;5026916;28;20033;-66
2021/04/17 05:29:06;;;;;;;8.05;5.32;;;;;;;7.02;55.44;100616.09;5022448;28;20061;-66
2021/04/17 05:31:35;;;;;;;11.95;5.00;;;;;;;7.31;54.94;100614.41;5026997;28;20037;-66
2021/04/17 05:34:02;;;;;;;4.80;4.40;;;;;;;7.57;54.31;100609.25;5028679;28;20496;-67
2021/04/17 05:36:29;;;;;;;5.53;4.47;;;;;;;7.52;54.19;100608.56;5024877;28;20045;-67
2021/04/17 05:38:55;;;;;;;10.73;5.00;;;;;;;7.67;54.00;100607.22;5026201;28;20168;-68
2021/04/17 05:41:25;;;;;;;6.05;4.68;;;;;;;7.85;53.33;100606.59;5029495;28;20061;-68
2021/04/17 05:43:53;;;;;;;6.72;4.60;;;;;;;8.16;51.96;100600.38;5028991;28;20089;-68
2021/04/17 05:46:20;;;;;;;7.30;5.03;;;;;;;8.09;52.03;100601.47;5028842;28;20128;-68
2021/04/17 05:48:49;;;;;;;9.50;4.90;;;;;;;8.40;51.66;100604.75;5027642;28;20099;-67
2021/04/17 05:51:16;;;;;;;7.47;5.35;;;;;;;8.59;51.67;100610.16;5030678;28;20046;-67
2021/04/17 05:53:43;;;;;;;5.95;4.28;;;;;;;8.88;50.98;100606.47;5032441;28;20399;-67
2021/04/17 05:56:10;;;;;;;6.57;5.00;;;;;;;8.73;49.82;100609.63;5034156;28;20071;-67
2021/04/17 05:58:36;;;;;;;11.18;5.60;;;;;;;8.64;49.12;100620.38;5033418;28;20152;-67
2021/04/17 06:01:03;;;;;;;6.35;4.60;;;;;;;8.72;48.38;100617.50;5033600;28;20468;-67
2021/04/17 06:03:29;;;;;;;7.03;5.22;;;;;;;8.66;49.35;100610.78;5028986;28;20505;-66
2021/04/17 06:05:57;;;;;;;6.82;5.30;;;;;;;8.51;50.26;100613.91;5034773;28;20041;-67
2021/04/17 06:08:24;;;;;;;8.20;5.75;;;;;;;8.79;49.68;100619.84;5032554;28;20042;-63
2021/04/17 06:10:50;;;;;;;10.07;6.03;;;;;;;8.37;50.13;100617.88;5030680;28;20045;-67
2021/04/17 06:13:17;;;;;;;11.32;5.43;;;;;;;8.33;49.34;100613.63;5031132;28;20049;-67
2021/04/17 06:15:43;;;;;;;10.07;5.63;;;;;;;8.65;47.88;100609.91;5030130;28;20061;-67
2021/04/17 06:18:10;;;;;;;11.45;5.53;;;;;;;8.66;48.36;100602.97;5029322;28;20046;-67
2021/04/17 06:20:36;;;;;;;11.10;6.15;;;;;;;9.22;47.97;100606.97;5025739;28;20045;-66
2021/04/17 06:23:04;;;;;;;7.32;5.90;;;;;;;9.84;46.36;100601.00;5027275;28;20048;-67
2021/04/17 06:25:30;;;;;;;8.40;5.82;;;;;;;10.52;45.02;100599.00;5026085;28;20131;-68
2021/04/17 06:27:57;;;;;;;6.95;5.25;;;;;;;11.01;43.14;100598.47;5026538;28;20095;-66
2021/04/17 06:30:23;;;;;;;6.82;5.38;;;;;;;11.45;43.15;100597.28;5031144;28;20069;-67
2021/04/17 06:32:50;;;;;;;7.75;5.50;;;;;;;12.21;42.30;100592.72;5019180;28;20433;-65
2021/04/17 06:35:17;;;;;;;5.57;4.93;;;;;;;12.69;40.47;100596.31;5046997;28;20574;-68
2021/04/17 06:37:45;;;;;;;7.22;4.82;;;;;;;13.20;39.15;100590.00;5031406;28;20134;-66
2021/04/17 06:40:12;;;;;;;7.43;5.07;;;;;;;13.55;38.69;100581.97;5033568;28;20083;-66
2021/04/17 06:42:44;;;;;;;10.55;5.22;;;;;;;14.02;37.66;100578.41;5027581;28;20049;-66
2021/04/17 06:45:13;;;;;;;9.23;4.97;;;;;;;14.10;37.76;100576.97;5031899;28;20500;-67
2021/04/17 06:47:40;;;;;;;7.95;5.32;;;;;;;14.75;36.43;100570.47;5025978;28;20137;-67
2021/04/17 06:50:09;;;;;;;6.78;5.40;;;;;;;15.11;35.21;100565.53;5033270;28;20045;-67
2021/04/17 06:52:40;;;;;;;7.97;6.28;;;;;;;15.45;34.02;100568.66;5027633;28;20061;-66
2021/04/17 06:55:10;;;;;;;8.25;6.70;;;;;;;15.75;34.30;100565.81;5030927;28;20049;-68
2021/04/17 06:57:41;;;;;;;9.00;8.07;;;;;;;15.42;34.72;100558.31;5032135;28;20053;-68
2021/04/17 07:00:13;;;;;;;12.05;7.25;;;;;;;16.12;34.18;100551.03;5033840;28;20049;-69
2021/04/17 07:02:45;;;;;;;9.73;7.85;;;;;;;16.27;34.43;100550.94;5033391;28;20052;-68
2021/04/17 07:05:14;;;;;;;12.20;9.35;;;;;;;16.42;34.35;100550.72;5033481;28;20037;-67
2021/04/17 07:07:42;;;;;;;17.00;11.63;;;;;;;16.77;34.01;100555.31;5030950;28;20048;-68
2021/04/17 07:10:09;;;;;;;16.48;11.20;;;;;;;16.72;33.97;100550.41;5025908;28;20042;-68
2021/04/17 07:12:35;;;;;;;16.63;12.02;;;;;;;16.68;33.68;100541.00;5029090;28;20037;-68
2021/04/17 07:15:06;;;;;;;15.23;11.38;;;;;;;17.15;33.12;100547.31;5027917;28;20135;-69
2021/04/17 07:17:37;;;;;;;14.15;11.18;;;;;;;17.68;33.19;100552.19;5028951;28;20547;-69
2021/04/17 07:20:13;;;;;;;16.65;11.10;;;;;;;17.99;32.61;100540.22;5030772;28;20111;-69
2021/04/17 07:22:42;;;;;;;13.95;12.02;;;;;;;17.78;32.70;100540.03;5025784;28;20072;-69
2021/04/17 07:25:11;;;;;;;15.00;11.27;;;;;;;18.16;32.60;100542.38;5030638;28;20037;-70
2021/04/17 07:27:51;;;;;;;17.10;12.75;;;;;;;19.16;31.15;100543.31;5030133;28;20069;-69
2021/04/17 07:30:19;;;;;;;17.63;12.13;;;;;;;19.26;30.40;100546.88;5028536;28;20053;-68
2021/04/17 07:33:06;;;;;;;16.98;12.52;;;;;;;19.45;30.42;100548.03;5030662;28;20057;-68
2021/04/17 07:35:40;;;;;;;20.85;13.48;;;;;;;18.79;31.14;100554.19;5028147;28;20120;-69
2021/04/17 07:38:10;;;;;;;16.10;13.80;;;;;;;18.03;31.53;100553.06;5028165;28;20496;-69
2021/04/17 07:40:38;;;;;;;17.10;12.75;;;;;;;18.87;31.66;100544.84;5029402;28;20459;-67
2021/04/17 07:43:06;;;;;;;15.90;13.23;;;;;;;19.34;30.07;100554.22;5026595;28;20076;-67
2021/04/17 07:45:40;;;;;;;20.88;12.55;;;;;;;19.83;29.38;100551.00;5019196;28;20069;-68
2021/04/17 07:48:23;;;;;;;13.90;12.40;;;;;;;18.95;29.64;100552.97;5026304;28;20065;-68
2021/04/17 07:50:50;;;;;;;13.23;11.93;;;;;;;19.04;28.92;100554.88;5021178;28;20899;-68
2021/04/17 07:53:24;;;;;;;14.65;11.52;;;;;;;19.17;28.70;100547.63;5024719;28;20080;-74
2021/04/17 07:55:50;;;;;;;11.45;10.00;;;;;;;19.52;29.65;100550.03;5025179;28;20060;-69
2021/04/17 07:58:16;;;;;;;14.35;11.35;;;;;;;19.29;28.62;100553.75;5024418;28;20037;-73
2021/04/17 08:00:44;;;;;;;15.27;10.32;;;;;;;18.59;29.98;100544.34;5028822;28;20128;-74
2021/04/17 08:03:11;;;;;;;11.57;9.93;;;;;;;18.99;29.86;100549.13;5025650;28;20061;-73
2021/04/17 08:05:40;;;;;;;13.88;11.75;;;;;;;17.92;32.32;100546.91;5030972;28;20095;-72
2021/04/17 08:08:06;;;;;;;13.98;11.82;;;;;;;19.00;30.41;100541.06;5029538;28;20121;-69
2021/04/17 08:10:33;;;;;;;18.42;12.20;;;;;;;19.34;29.21;100539.19;5031976;28;20041;-70
2021/04/17 08:13:02;;;;;;;16.17;10.95;;;;;;;19.31;29.59;100534.13;5031130;28;20484;-73
2021/04/17 08:15:32;;;;;;;15.35;11.68;;;;;;;19.56;29.85;100534.78;5028218;28;20092;-73
2021/04/17 08:17:59;;;;;;;16.90;15.18;;;;;;;19.16;29.62;100545.97;5028111;28;20132;-73
2021/04/17 08:20:25;;;;;;;15.18;12.93;;;;;;;19.27;30.25;100537.16;5026199;28;20041;-70
2021/04/17 08:22:53;;;;;;;13.65;12.23;;;;;;;20.20;28.97;100536.47;5025493;28;20492;-73
2021/04/17 08:25:21;;;;;;;17.50;15.10;;;;;;;19.58;29.61;100532.81;5025836;28;20083;-73
2021/04/17 08:27:49;;;;;;;23.58;20.67;;;;;;;19.61;29.66;100540.56;5023146;28;20037;-73
2021/04/17 08:30:26;;;;;;;16.52;14.90;;;;;;;19.62;30.69;100531.66;5027086;28;20049;-73
2021/04/17 08:32:53;;;;;;;15.18;12.85;;;;;;;20.54;29.41;100537.91;5026334;28;20080;-73
2021/04/17 08:35:25;;;;;;;13.63;12.23;;;;;;;20.81;28.06;100536.44;5025251;28;20042;-73
2021/04/17 08:37:52;;;;;;;13.90;12.52;;;;;;;19.73;28.46;100528.94;5027621;28;20064;-73
2021/04/17 08:40:42;;;;;;;12.77;11.50;;;;;;;19.41;29.39;100536.88;5023073;28;20064;-73
2021/04/17 08:43:15;;;;;;;19.20;11.65;;;;;;;20.79;27.64;100531.28;5034173;28;20072;-72
2021/04/17 08:46:10;;;;;;;17.23;12.48;;;;;;;21.43;27.28;100532.66;5023689;28;20100;-73
2021/04/17 08:48:57;;;;;;;18.00;13.20;;;;;;;20.84;27.37;100539.69;5021544;28;20576;-73
2021/04/17 08:51:34;;;;;;;18.20;11.65;;;;;;;20.31;28.26;100534.56;5028079;28;20053;-72
2021/04/17 08:54:00;;;;;;;13.73;12.43;;;;;;;20.70;27.76;100537.41;5026662;28;20128;-73
2021/04/17 08:56:58;;;;;;;14.15;12.57;;;;;;;20.39;28.09;100531.25;5028395;28;20099;-72
2021/04/17 08:59:28;;;;;;;13.65;12.35;;;;;;;20.57;28.91;100532.34;5020873;28;20077;-72
2021/04/17 09:01:57;;;;;;;18.83;13.13;;;;;;;19.80;28.49;100527.44;5011455;28;20223;-72
2021/04/17 09:04:26;;;;;;;17.02;11.75;;;;;;;20.29;28.97;100525.06;5011752;28;20034;-72
2021/04/17 09:06:55;;;;;;;14.90;9.27;;;;;;;20.52;27.62;100528.44;5030395;28;20046;-71
2021/04/17 09:09:23;;;;;;;12.65;11.00;;;;;;;20.24;27.37;100533.44;5030969;28;20037;-71
2021/04/17 09:11:52;;;;;;;12.93;10.93;;;;;;;19.14;29.51;100526.75;5030306;28;20041;-71
2021/04/17 09:17:02;;;;;;;13.95;10.88;;;;;;;17.49;29.66;100531.66;5031133;28;20060;-70
2021/04/17 09:19:38;;;;;;;14.15;9.90;;;;;;;18.20;29.98;100524.53;5033092;28;20038;-71
2021/04/17 09:22:27;;;;;;;12.90;11.32;;;;;;;18.06;30.17;100525.63;5034768;28;20041;-71
2021/04/17 09:24:54;;;;;;;15.75;11.00;;;;;;;18.04;30.38;100525.72;5032988;28;20049;-71
2021/04/17 09:27:31;;;;;;;16.40;12.40;;;;;;;18.15;30.39;100521.41;5034036;28;20068;-71
2021/04/17 09:30:01;;;;;;;15.70;11.88;;;;;;;18.41;29.62;100522.88;5032018;28;20069;-71
2021/04/17 09:32:37;;;;;;;13.15;11.73;;;;;;;18.25;30.41;100519.75;5033881;28;20501;-71
2021/04/17 09:35:20;;;;;;;34.10;28.85;;;;;;;17.76;31.31;100519.06;5020305;28;20431;-70
2021/04/17 09:37:59;;;;;;;19.20;16.00;;;;;;;17.28;32.19;100518.28;5015342;28;20064;-69
2021/04/17 09:40:41;;;;;;;12.68;11.38;;;;;;;18.13;32.07;100520.69;5013597;28;20477;-70
2021/04/17 09:43:31;;;;;;;17.88;12.65;;;;;;;17.47;32.50;100517.72;5015865;28;20046;-70
2021/04/17 09:46:03;;;;;;;15.00;11.60;;;;;;;17.20;33.45;100518.81;5014814;28;20042;-70
2021/04/17 09:48:41;;;;;;;16.48;12.57;;;;;;;16.99;33.03;100518.63;5014609;28;20050;-70
2021/04/17 09:51:22;;;;;;;14.50;13.00;;;;;;;16.48;34.08;100513.44;5012205;28;20082;-70
2021/04/17 09:53:50;;;;;;;14.15;11.52;;;;;;;16.89;34.72;100511.50;5013906;28;20060;-70
2021/04/17 09:56:34;;;;;;;18.70;14.95;;;;;;;16.52;34.88;100518.50;5014157;28;20123;-69
2021/04/17 09:59:17;;;;;;;;;;;;;;;15.71;36.96;100517.00;5014658;28;20042;-69
2021/04/17 10:01:55;;;;;;;27.15;22.50;;;;;;;16.16;36.43;100507.78;5014126;28;19922;-69
2021/04/17 10:04:22;;;;;;;18.10;16.05;;;;;;;16.17;37.26;100501.59;5012400;28;20408;-67
2021/04/17 10:06:58;;;;;;;18.63;14.10;;;;;;;15.83;36.66;100510.09;5032183;28;20116;-66
2021/04/17 10:09:25;;;;;;;14.65;12.65;;;;;;;15.76;36.76;100508.81;5020953;28;20049;-69
2021/04/17 10:12:04;;;;;;;18.98;13.13;;;;;;;15.64;35.37;100505.22;5016238;28;20042;-68
2021/04/17 10:14:32;;;;;;;25.45;11.93;;;;;;;15.57;35.99;100496.06;5013760;28;20046;-68
2021/04/17 10:16:59;;;;;;;12.35;10.93;;;;;;;15.83;35.50;100497.81;5028842;28;20129;-68
2021/04/17 10:19:28;;;;;;;13.90;10.95;;;;;;;15.88;36.28;100500.13;5033114;28;20049;-68
2021/04/17 10:21:59;;;;;;;12.38;10.98;;;;;;;15.64;35.50;100487.69;5033573;28;20182;-68
2021/04/17 10:24:30;;;;;;;13.38;11.23;;;;;;;16.10;36.62;100492.44;5021854;28;20453;-68
2021/04/17 10:26:58;;;;;;;13.23;10.98;;;;;;;15.77;34.19;100489.50;5022330;28;20099;-68
2021/04/17 10:29:35;;;;;;;14.93;11.40;;;;;;;16.01;34.38;100489.59;5025064;28;20051;-69
2021/04/17 10:32:10;;;;;;;11.02;9.80;;;;;;;15.93;32.93;100479.63;5032114;28;20046;-68
2021/04/17 10:34:39;;;;;;;14.00;11.57;;;;;;;16.12;34.56;100480.00;5032417;28;20496;-69
2021/04/17 10:37:08;;;;;;;9.73;8.82;;;;;;;15.98;33.96;100480.16;5023796;28;20064;-68
2021/04/17 10:39:36;;;;;;;12.85;11.55;;;;;;;15.91;34.20;100481.50;5020902;28;20481;-73
2021/04/17 10:42:10;;;;;;;12.73;11.02;;;;;;;15.84;34.48;100480.25;5027517;28;20352;-74
2021/04/17 10:44:36;;;;;;;12.80;10.77;;;;;;;15.87;33.68;100469.50;5025219;28;20045;-71
2021/04/17 10:47:10;;;;;;;13.20;8.95;;;;;;;15.92;31.92;100473.50;5032257;28;20045;-72
2021/04/17 10:49:38;;;;;;;;;;;;;;;15.66;32.79;100472.66;5031594;28;20057;-73
2021/04/17 10:52:33;;;;;;;10.23;8.07;;;;;;;15.96;33.49;100469.72;5030213;28;19928;-74
2021/04/17 10:54:59;;;;;;;11.52;8.55;;;;;;;16.00;32.04;100461.63;5013962;28;20042;-73
2021/04/17 10:57:26;;;;;;;13.60;9.10;;;;;;;15.81;32.92;100468.13;5011508;28;20065;-73
2021/04/17 11:00:02;;;;;;;11.23;8.63;;;;;;;15.75;31.04;100460.66;5010701;28;20452;-70
2021/04/17 11:02:32;;;;;;;10.40;9.23;;;;;;;15.76;32.59;100458.88;5011367;28;20038;-72
2021/04/17 11:05:00;;;;;;;11.57;8.30;;;;;;;15.55;33.44;100461.97;5011804;28;20057;-72
2021/04/17 11:07:32;;;;;;;9.45;8.25;;;;;;;15.54;33.10;100462.09;5019494;28;20033;-72
2021/04/17 11:09:59;;;;;;;12.07;8.02;;;;;;;15.71;32.55;100454.81;5025401;28;20505;-72
2021/04/17 11:12:31;;;;;;;10.73;9.65;;;;;;;15.43;32.96;100452.28;5018989;28;20128;-71
2021/04/17 11:15:17;;;;;;;14.60;8.27;;;;;;;15.51;34.23;100452.63;5032536;28;20049;-72
2021/04/17 11:18:17;;;;;;;11.10;9.98;;;;;;;15.23;33.97;100442.28;5022200;28;20045;-71
2021/04/17 11:21:00;;;;;;;9.68;8.05;;;;;;;15.26;32.95;100447.34;5012889;28;20405;-73
2021/04/17 11:23:35;;;;;;;10.32;9.40;;;;;;;15.37;34.17;100431.69;5011384;28;20092;-74
2021/04/17 11:26:11;;;;;;;9.60;7.72;;;;;;;15.38;34.02;100430.75;5027909;28;20058;-72
2021/04/17 11:28:41;;;;;;;9.45;7.47;;;;;;;15.44;32.48;100438.22;5030659;28;20073;-70
2021/04/17 11:31:10;;;;;;;8.98;7.28;;;;;;;15.82;33.07;100434.78;5031326;28;20245;-73
2021/04/17 11:33:37;;;;;;;7.43;6.15;;;;;;;16.01;32.11;100435.22;5015505;28;20093;-62
2021/04/17 11:36:06;;;;;;;8.75;6.38;;;;;;;15.82;31.85;100429.53;5027391;28;20076;-64
2021/04/17 11:38:32;;;;;;;9.43;8.52;;;;;;;15.55;30.77;100425.19;5022054;28;20065;-60
2021/04/17 11:40:59;;;;;;;9.23;7.05;;;;;;;15.69;32.19;100425.13;5028856;28;20049;-65
2021/04/17 11:43:26;;;;;;;8.05;7.22;;;;;;;15.79;32.14;100422.72;5001002;28;20060;-65